Time,TemperatureF,DewpointF,PressureIn,WindDirection,WindDirectionDegrees,WindSpeedMPH,WindSpeedGustMPH,Humidity,HourlyPrecipIn,Conditions,Clouds,dailyrainin,SolarRadiationWatts/m^2,SoftwareType,DateUTC
2013-03-28 00:12:00,40.4,31.0,30.05,WNW,288,2.0,11.0,68,0.00,,,0.00,0,weatherlink.com 1.10,2013-03-28 04:12:00,
2013-03-28 00:27:00,40.1,31.0,30.05,WNW,303,1.0,9.0,69,0.00,,,0.00,0,weatherlink.com 1.10,2013-03-28 04:27:00,
2013-03-28 00:42:00,39.9,31.0,30.05,West,261,4.0,9.0,70,0.00,,,0.00,0,weatherlink.com 1.10,2013-03-28 04:42:00,
2013-03-28 00:58:00,39.5,31.0,30.05,NW,304,2.0,10.0,71,0.00,,,0.00,0,weatherlink.com 1.10,2013-03-28 04:58:00,
2013-03-28 01:12:00,39.2,31.0,30.05,WSW,254,4.0,10.0,72,0.00,,,0.00,0,weatherlink.com 1.10,2013-03-28 05:12:00,
2013-03-28 01:27:00,38.9,31.0,30.05,NW,323,1.0,8.0,73,0.00,,,0.00,0,weatherlink.com 1.10,2013-03-28 05:27:00,
2013-03-28 01:43:00,38.7,31.0,30.05,NW,310,5.0,7.0,73,0.00,,,0.00,0,weatherlink.com 1.10,2013-03-28 05:43:00,
2013-03-28 01:58:00,38.6,31.0,30.05,NW,314,3.0,10.0,73,0.00,,,0.00,0,weatherlink.com 1.10,2013-03-28 05:58:00,
2013-03-28 02:13:00,38.3,31.0,30.05,WNW,288,3.0,4.0,74,0.00,,,0.00,0,weatherlink.com 1.10,2013-03-28 06:13:00,
2013-03-28 02:28:00,38.0,30.0,30.05,WNW,296,2.0,6.0,74,0.00,,,0.00,0,weatherlink.com 1.10,2013-03-28 06:28:00,
2013-03-28 02:43:00,37.8,30.0,30.05,SW,235,3.0,5.0,74,0.00,,,0.00,0,weatherlink.com 1.10,2013-03-28 06:43:00,
2013-03-28 02:58:00,37.8,31.0,30.05,West,268,1.0,8.0,75,0.00,,,0.00,0,weatherlink.com 1.10,2013-03-28 06:58:00,
2013-03-28 03:13:00,37.6,30.0,30.05,NW,319,0.0,6.0,75,0.00,,,0.00,0,weatherlink.com 1.10,2013-03-28 07:13:00,
2013-03-28 03:28:00,37.2,31.0,30.05,WNW,291,1.0,3.0,77,0.00,,,0.00,0,weatherlink.com 1.10,2013-03-28 07:28:00,
2013-03-28 03:43:00,36.7,30.0,30.05,West,280,1.0,3.0,78,0.00,,,0.00,0,weatherlink.com 1.10,2013-03-28 07:43:00,
2013-03-28 03:58:00,36.7,30.0,30.05,WNW,289,1.0,4.0,78,0.00,,,0.00,0,weatherlink.com 1.10,2013-03-28 07:58:00,
2013-03-28 04:13:00,35.9,30.0,30.05,WNW,288,1.0,3.0,80,0.00,,,0.00,0,weatherlink.com 1.10,2013-03-28 08:13:00,
2013-03-28 04:28:00,35.1,30.0,30.05,WNW,288,1.0,2.0,81,0.00,,,0.00,0,weatherlink.com 1.10,2013-03-28 08:28:00,
2013-03-28 04:43:00,35.7,31.0,30.05,WNW,298,3.0,5.0,82,0.00,,,0.00,0,weatherlink.com 1.10,2013-03-28 08:43:00,
2013-03-28 04:58:00,36.1,31.0,30.05,WNW,284,2.0,5.0,80,0.00,,,0.00,0,weatherlink.com 1.10,2013-03-28 08:58:00,
2013-03-28 05:13:00,36.5,31.0,30.05,WNW,302,5.0,7.0,79,0.00,,,0.00,0,weatherlink.com 1.10,2013-03-28 09:13:00,
2013-03-28 05:28:00,36.6,30.0,30.05,WNW,294,2.0,5.0,77,0.00,,,0.00,0,weatherlink.com 1.10,2013-03-28 09:28:00,
2013-03-28 05:43:00,36.9,30.0,30.05,NW,321,1.0,6.0,76,0.00,,,0.00,0,weatherlink.com 1.10,2013-03-28 09:43:00,
2013-03-28 05:58:00,37.1,30.0,30.05,NW,315,1.0,7.0,75,0.00,,,0.00,0,weatherlink.com 1.10,2013-03-28 09:58:00,
2013-03-28 06:13:00,36.9,30.0,30.05,NW,309,1.0,6.0,75,0.00,,,0.00,0,weatherlink.com 1.10,2013-03-28 10:13:00,
2013-03-28 06:28:00,36.9,30.0,30.05,WNW,296,2.0,5.0,75,0.00,,,0.00,0,weatherlink.com 1.10,2013-03-28 10:28:00,
2013-03-28 06:43:00,36.8,30.0,30.06,WNW,292,1.0,4.0,75,0.00,,,0.00,0,weatherlink.com 1.10,2013-03-28 10:43:00,
2013-03-28 06:58:00,36.6,30.0,30.06,WNW,289,3.0,6.0,76,0.00,,,0.00,7,weatherlink.com 1.10,2013-03-28 10:58:00,
2013-03-28 07:13:00,36.5,30.0,30.07,WNW,291,1.0,4.0,76,0.00,,,0.00,12,weatherlink.com 1.10,2013-03-28 11:13:00,
2013-03-28 07:28:00,36.8,30.0,30.07,WNW,300,2.0,5.0,77,0.00,,,0.00,51,weatherlink.com 1.10,2013-03-28 11:28:00,
2013-03-28 07:43:00,37.8,31.0,30.07,WNW,282,3.0,5.0,75,0.00,,,0.00,91,weatherlink.com 1.10,2013-03-28 11:43:00,
2013-03-28 07:58:00,38.3,31.0,30.08,WNW,287,4.0,7.0,74,0.00,,,0.00,81,weatherlink.com 1.10,2013-03-28 11:58:00,
2013-03-28 08:13:00,38.0,30.0,30.09,WNW,302,2.0,4.0,74,0.00,,,0.00,67,weatherlink.com 1.10,2013-03-28 12:13:00,
2013-03-28 08:28:00,38.6,31.0,30.09,WNW,296,1.0,5.0,74,0.00,,,0.00,181,weatherlink.com 1.10,2013-03-28 12:28:00,
2013-03-28 08:43:00,38.9,31.0,30.09,NW,309,3.0,4.0,73,0.00,,,0.00,81,weatherlink.com 1.10,2013-03-28 12:43:00,
2013-03-28 08:58:00,39.4,31.0,30.09,NNW,339,2.0,4.0,72,0.00,,,0.00,146,weatherlink.com 1.10,2013-03-28 12:58:00,
2013-03-28 09:13:00,40.3,31.0,30.09,WNW,301,1.0,7.0,69,0.00,,,0.00,153,weatherlink.com 1.10,2013-03-28 13:13:00,
2013-03-28 09:28:00,41.3,31.0,30.09,WNW,300,0.0,9.0,67,0.00,,,0.00,218,weatherlink.com 1.10,2013-03-28 13:28:00,
2013-03-28 09:43:00,42.6,31.0,30.09,NW,321,5.0,10.0,65,0.00,,,0.00,413,weatherlink.com 1.10,2013-03-28 13:43:00,
2013-03-28 09:58:00,43.6,31.0,30.09,North,355,6.0,11.0,61,0.00,,,0.00,272,weatherlink.com 1.10,2013-03-28 13:58:00,
2013-03-28 10:14:00,43.9,31.0,30.09,North,355,5.0,11.0,60,0.00,,,0.00,353,weatherlink.com 1.10,2013-03-28 14:14:00,
2013-03-28 10:29:00,44.5,31.0,30.09,NW,317,5.0,10.0,59,0.00,,,0.00,236,weatherlink.com 1.10,2013-03-28 14:29:00,
2013-03-28 10:44:00,44.0,30.0,30.09,NW,321,1.0,10.0,58,0.00,,,0.00,257,weatherlink.com 1.10,2013-03-28 14:44:00,
2013-03-28 10:59:00,44.6,30.0,30.09,NE,38,3.0,8.0,58,0.00,,,0.00,279,weatherlink.com 1.10,2013-03-28 14:59:00,
2013-03-28 11:14:00,44.9,30.0,30.09,North,355,6.0,8.0,57,0.00,,,0.00,186,weatherlink.com 1.10,2013-03-28 15:14:00,
2013-03-28 11:29:00,45.1,31.0,30.09,NNE,27,2.0,6.0,58,0.00,,,0.00,179,weatherlink.com 1.10,2013-03-28 15:29:00,
2013-03-28 11:44:00,44.8,31.0,30.09,NE,34,3.0,6.0,59,0.00,,,0.00,207,weatherlink.com 1.10,2013-03-28 15:44:00,
2013-03-28 11:59:00,45.4,32.0,30.10,WNW,288,2.0,9.0,59,0.00,,,0.00,223,weatherlink.com 1.10,2013-03-28 15:59:00,
2013-03-28 12:14:00,46.6,33.0,30.10,ENE,65,2.0,10.0,60,0.00,,,0.00,923,weatherlink.com 1.10,2013-03-28 16:14:00,
2013-03-28 12:29:00,46.0,33.0,30.10,WNW,288,5.0,13.0,61,0.00,,,0.00,856,weatherlink.com 1.10,2013-03-28 16:29:00,
2013-03-28 12:44:00,47.2,32.0,30.10,NNW,338,3.0,9.0,57,0.00,,,0.00,313,weatherlink.com 1.10,2013-03-28 16:44:00,
2013-03-28 12:59:00,46.7,32.0,30.10,NNW,330,6.0,10.0,58,0.00,,,0.00,258,weatherlink.com 1.10,2013-03-28 16:59:00,
2013-03-28 13:14:00,46.5,33.0,30.10,North,11,2.0,10.0,59,0.00,,,0.00,176,weatherlink.com 1.10,2013-03-28 17:14:00,
2013-03-28 13:29:00,47.6,34.0,30.09,NE,39,5.0,7.0,59,0.00,,,0.00,392,weatherlink.com 1.10,2013-03-28 17:29:00,
2013-03-28 13:44:00,47.1,33.0,30.09,NNW,343,1.0,10.0,58,0.00,,,0.00,427,weatherlink.com 1.10,2013-03-28 17:44:00,
2013-03-28 13:59:00,46.1,34.0,30.09,NNW,343,1.0,7.0,63,0.00,,,0.00,329,weatherlink.com 1.10,2013-03-28 17:59:00,
2013-03-28 14:14:00,47.2,33.0,30.09,NNE,18,2.0,10.0,58,0.00,,,0.00,248,weatherlink.com 1.10,2013-03-28 18:14:00,
2013-03-28 14:29:00,47.8,33.0,30.09,NNE,17,3.0,8.0,58,0.00,,,0.00,304,weatherlink.com 1.10,2013-03-28 18:29:00,
2013-03-28 14:44:00,47.8,33.0,30.09,NNW,344,5.0,6.0,57,0.00,,,0.00,276,weatherlink.com 1.10,2013-03-28 18:44:00,
2013-03-28 14:59:00,48.3,33.0,30.09,WNW,303,2.0,9.0,55,0.00,,,0.00,336,weatherlink.com 1.10,2013-03-28 18:59:00,
2013-03-28 15:14:00,47.8,33.0,30.09,North,5,6.0,12.0,56,0.00,,,0.00,341,weatherlink.com 1.10,2013-03-28 19:14:00,
2013-03-28 15:29:00,48.5,33.0,30.09,NNE,14,3.0,8.0,56,0.00,,,0.00,269,weatherlink.com 1.10,2013-03-28 19:29:00,
2013-03-28 15:44:00,47.0,34.0,30.09,NW,311,3.0,12.0,60,0.00,,,0.00,118,weatherlink.com 1.10,2013-03-28 19:44:00,
2013-03-28 15:59:00,46.7,33.0,30.09,NW,313,1.0,9.0,59,0.00,,,0.00,158,weatherlink.com 1.10,2013-03-28 19:59:00,
2013-03-28 16:14:00,47.6,33.0,30.09,North,360,1.0,5.0,57,0.00,,,0.00,167,weatherlink.com 1.10,2013-03-28 20:14:00,
2013-03-28 16:29:00,48.0,33.0,30.09,NNE,32,3.0,6.0,56,0.00,,,0.00,163,weatherlink.com 1.10,2013-03-28 20:29:00,
2013-03-28 16:44:00,48.4,33.0,30.09,NNW,344,2.0,9.0,55,0.00,,,0.00,118,weatherlink.com 1.10,2013-03-28 20:44:00,
2013-03-28 16:59:00,47.9,32.0,30.10,NW,309,5.0,10.0,55,0.00,,,0.00,84,weatherlink.com 1.10,2013-03-28 20:59:00,
2013-03-28 17:14:00,47.6,32.0,30.10,North,355,2.0,17.0,56,0.00,,,0.00,70,weatherlink.com 1.10,2013-03-28 21:14:00,
2013-03-28 17:29:00,48.2,33.0,30.10,NNW,333,2.0,7.0,55,0.00,,,0.00,107,weatherlink.com 1.10,2013-03-28 21:29:00,
2013-03-28 17:44:00,47.6,32.0,30.11,NNW,329,1.0,5.0,56,0.00,,,0.00,63,weatherlink.com 1.10,2013-03-28 21:44:00,
2013-03-28 17:59:00,47.0,32.0,30.11,NNW,348,3.0,8.0,57,0.00,,,0.00,54,weatherlink.com 1.10,2013-03-28 21:59:00,
2013-03-28 18:14:00,46.7,32.0,30.11,NNE,12,3.0,7.0,58,0.00,,,0.00,40,weatherlink.com 1.10,2013-03-28 22:14:00,
2013-03-28 18:29:00,46.0,33.0,30.12,West,271,4.0,8.0,61,0.00,,,0.00,21,weatherlink.com 1.10,2013-03-28 22:29:00,
2013-03-28 18:44:00,45.9,33.0,30.12,West,276,5.0,6.0,61,0.00,,,0.00,18,weatherlink.com 1.10,2013-03-28 22:44:00,
2013-03-28 18:59:00,45.9,33.0,30.13,NW,304,5.0,9.0,61,0.00,,,0.00,7,weatherlink.com 1.10,2013-03-28 22:59:00,
2013-03-28 19:14:00,45.8,33.0,30.14,North,349,0.0,8.0,61,0.00,,,0.00,0,weatherlink.com 1.10,2013-03-28 23:14:00,
2013-03-28 19:29:00,46.0,32.0,30.14,NW,308,2.0,10.0,59,0.00,,,0.00,0,weatherlink.com 1.10,2013-03-28 23:29:00,
2013-03-28 19:44:00,45.9,33.0,30.15,NNW,342,4.0,8.0,60,0.00,,,0.00,0,weatherlink.com 1.10,2013-03-28 23:44:00,
2013-03-28 19:59:00,45.9,32.0,30.15,NW,307,2.0,6.0,59,0.00,,,0.00,0,weatherlink.com 1.10,2013-03-28 23:59:00,
2013-03-28 20:14:00,46.0,32.0,30.15,NNW,331,2.0,8.0,59,0.00,,,0.00,0,weatherlink.com 1.10,2013-03-29 00:14:00,
2013-03-28 20:29:00,46.0,33.0,30.16,WNW,302,2.0,13.0,60,0.00,,,0.00,0,weatherlink.com 1.10,2013-03-29 00:29:00,
2013-03-28 20:44:00,45.9,33.0,30.16,North,355,2.0,9.0,60,0.00,,,0.00,0,weatherlink.com 1.10,2013-03-29 00:44:00,
2013-03-28 20:59:00,45.3,32.0,30.16,North,355,2.0,6.0,61,0.00,,,0.00,0,weatherlink.com 1.10,2013-03-29 00:59:00,
2013-03-28 21:14:00,44.8,32.0,30.17,NE,34,7.0,9.0,62,0.00,,,0.00,0,weatherlink.com 1.10,2013-03-29 01:14:00,
2013-03-28 21:29:00,44.7,33.0,30.18,NNW,330,1.0,6.0,63,0.00,,,0.00,0,weatherlink.com 1.10,2013-03-29 01:29:00,
2013-03-28 21:44:00,44.7,33.0,30.18,WNW,282,2.0,5.0,63,0.00,,,0.00,0,weatherlink.com 1.10,2013-03-29 01:44:00,
2013-03-28 21:59:00,44.7,32.0,30.19,WNW,301,4.0,5.0,62,0.00,,,0.00,0,weatherlink.com 1.10,2013-03-29 01:59:00,
2013-03-28 22:14:00,44.5,32.0,30.19,NNW,329,4.0,4.0,62,0.00,,,0.00,0,weatherlink.com 1.10,2013-03-29 02:14:00,
2013-03-28 22:29:00,44.3,32.0,30.19,WNW,298,1.0,3.0,63,0.00,,,0.00,0,weatherlink.com 1.10,2013-03-29 02:29:00,
2013-03-28 22:44:00,44.2,32.0,30.19,NW,320,3.0,10.0,63,0.00,,,0.00,0,weatherlink.com 1.10,2013-03-29 02:44:00,
2013-03-28 22:59:00,43.8,32.0,30.19,WNW,297,0.0,4.0,64,0.00,,,0.00,0,weatherlink.com 1.10,2013-03-29 02:59:00,
2013-03-28 23:14:00,43.7,32.0,30.19,WNW,294,5.0,5.0,64,0.00,,,0.00,0,weatherlink.com 1.10,2013-03-29 03:14:00,
2013-03-28 23:29:00,43.6,32.0,30.20,WNW,296,4.0,6.0,64,0.00,,,0.00,0,weatherlink.com 1.10,2013-03-29 03:29:00,
2013-03-28 23:44:00,43.1,32.0,30.19,WNW,287,2.0,4.0,66,0.00,,,0.00,0,weatherlink.com 1.10,2013-03-29 03:44:00,
2013-03-28 23:59:00,43.2,32.0,30.19,WNW,298,0.0,6.0,65,0.00,,,0.00,0,weatherlink.com 1.10,2013-03-29 03:59:00,